Date,TemperatureHighF,TemperatureAvgF,TemperatureLowF,DewpointHighF,DewpointAvgF,DewpointLowF,HumidityHigh,HumidityAvg,HumidityLow,PressureMaxIn,PressureMinIn,WindSpeedMaxMPH,WindSpeedAvgMPH,GustSpeedMaxMPH,PrecipitationSumIn
2013-1-1,37.0,31.7,24.0,36.0,30.4,23.0,98,96,92,30.17,29.94,6,3,0,0.00
2013-1-2,35.0,26.5,20.0,26.0,21.8,19.0,95,83,57,30.21,30.12,4,1,0,0.00
2013-1-3,42.0,30.7,21.0,32.0,24.7,19.0,95,80,53,30.37,30.20,4,1,0,0.00
2013-1-4,47.0,33.9,21.0,29.0,24.4,19.0,94,71,42,30.40,30.26,5,1,0,0.00
2013-1-5,43.0,36.6,29.0,35.0,30.4,23.0,92,78,69,30.26,30.09,7,2,0,0.00
2013-1-6,46.0,34.8,26.0,33.0,25.4,20.0,92,71,40,30.29,30.15,7,3,0,0.00
2013-1-7,52.0,35.8,22.0,31.0,24.5,18.0,90,66,38,30.27,30.04,6,2,0,0.00
2013-1-8,58.0,42.3,29.0,46.0,35.0,23.0,96,76,54,30.11,29.95,6,1,0,0.00
2013-1-9,54.0,49.7,47.0,47.0,44.0,39.0,98,82,62,30.23,30.10,10,4,0,0.00
2013-1-10,59.0,50.3,46.0,56.0,47.3,40.0,95,89,65,30.10,29.69,9,5,0,0.00
2013-1-11,66.0,54.7,44.0,48.0,45.6,42.0,95,74,49,29.77,29.61,9,5,0,0.00
2013-1-12,58.0,43.8,29.0,52.0,37.8,27.0,94,81,49,29.84,29.67,9,4,0,0.00
2013-1-13,29.0,23.2,17.0,27.0,19.9,14.0,93,87,79,30.29,29.84,4,0,0,0.00
2013-1-14,33.0,23.3,16.0,18.0,16.0,13.0,91,74,50,30.42,30.27,6,2,0,0.00
2013-1-15,34.0,25.6,18.0,23.0,17.8,14.0,88,74,43,30.27,30.10,5,2,0,0.00
2013-1-16,43.0,29.1,17.0,23.0,19.4,15.0,93,70,40,30.14,30.04,6,1,0,0.00
2013-1-17,47.0,36.1,26.0,34.0,26.7,20.0,85,70,47,30.41,30.11,7,3,0,0.00
2013-1-18,56.0,39.1,24.0,33.0,27.6,22.0,93,67,35,30.43,30.13,8,3,0,0.00
2013-1-19,62.0,48.9,40.0,38.0,33.8,28.0,76,57,40,30.13,29.97,9,3,0,0.00
2013-1-20,61.0,45.6,32.0,37.0,30.4,19.0,82,57,37,30.16,30.01,7,2,0,0.00
2013-1-21,39.0,29.3,22.0,21.0,16.7,14.0,72,60,41,30.29,30.16,7,3,0,0.00
2013-1-22,47.0,32.5,21.0,27.0,21.4,15.0,81,65,44,30.25,30.14,5,1,0,0.00
2013-1-23,62.0,42.9,26.0,44.0,34.1,22.0,88,72,51,30.18,30.05,7,2,0,0.00
2013-1-24,44.0,38.5,35.0,35.0,23.9,18.0,70,56,44,30.21,30.01,7,5,0,0.00
2013-1-25,49.0,38.2,30.0,35.0,31.2,26.0,96,77,52,30.16,30.02,4,1,0,0.00
2013-1-26,61.0,46.1,35.0,30.0,26.2,21.0,76,50,23,30.18,30.03,6,2,0,0.00
2013-1-27,60.0,53.0,46.0,56.0,47.4,30.0,90,81,51,30.03,29.80,9,5,0,0.00
2013-1-28,72.0,65.8,59.0,62.0,60.4,56.0,90,83,71,29.84,29.67,10,7,0,0.00
2013-1-29,68.0,60.2,46.0,63.0,57.0,45.0,97,89,80,29.68,29.33,12,5,0,0.00
2013-1-30,46.0,33.4,25.0,45.0,29.9,21.0,97,87,77,29.97,29.36,14,8,0,0.00
2013-1-31,46.0,32.9,20.0,31.0,23.4,11.0,90,69,55,30.36,29.97,10,5,0,0.00